Time;durP1;ratioP1;P1;durP2;ratioP2;P2;SDS_P1;SDS_P2;PMS_P1;PMS_P2;Temp;Humidity;BMP_temperature;BMP_pressure;BME280_temperature;BME280_humidity;BME280_pressure;Samples;Min_cycle;Max_cycle;Signal;HPM_P1;HPM_P2
2021/05/31 00:01:10;;;;;;;15.90;11.43;;;11.50;99.90;;;;;;5085532;28;20679;-49
2021/05/31 00:03:36;;;;;;;18.90;12.93;;;11.40;99.90;;;;;;5084619;28;20194;-47
2021/05/31 00:06:03;;;;;;;18.90;11.67;;;11.40;99.90;;;;;;5083906;28;20210;-49
2021/05/31 00:08:29;;;;;;;16.23;11.40;;;11.30;99.90;;;;;;5085900;28;20209;-47
2021/05/31 00:10:55;;;;;;;21.17;13.33;;;11.40;99.90;;;;;;5067474;28;20202;-47
2021/05/31 00:13:22;;;;;;;23.13;13.43;;;11.30;99.90;;;;;;5083986;28;20194;-46
2021/05/31 00:15:48;;;;;;;18.27;12.37;;;11.30;99.90;;;;;;5081790;28;20182;-47
2021/05/31 00:18:15;;;;;;;20.73;12.87;;;11.30;99.90;;;;;;5085711;28;20571;-48
2021/05/31 00:20:42;;;;;;;21.03;14.43;;;11.20;99.90;;;;;;5082646;28;20200;-46
2021/05/31 00:23:08;;;;;;;24.20;14.90;;;11.20;99.90;;;;;;5084718;28;20613;-46
2021/05/31 00:25:35;;;;;;;23.20;14.13;;;11.10;99.90;;;;;;5069944;28;20221;-46
2021/05/31 00:28:01;;;;;;;21.03;13.83;;;11.20;99.90;;;;;;5081829;28;20214;-47
2021/05/31 00:30:28;;;;;;;21.60;14.30;;;11.10;99.90;;;;;;5084875;28;20201;-46
2021/05/31 00:32:54;;;;;;;20.83;14.27;;;11.10;99.90;;;;;;5081629;28;20255;-47
2021/05/31 00:35:21;;;;;;;23.37;14.13;;;11.10;99.90;;;;;;5085345;28;20190;-46
2021/05/31 00:37:47;;;;;;;20.27;13.60;;;11.00;99.90;;;;;;5081761;28;20209;-48
2021/05/31 00:40:15;;;;;;;20.97;13.30;;;11.00;99.90;;;;;;5084791;28;20194;-47
2021/05/31 00:42:41;;;;;;;17.87;13.40;;;11.00;99.90;;;;;;5068093;28;20225;-48
2021/05/31 00:45:09;;;;;;;24.20;13.87;;;11.00;99.90;;;;;;5083859;28;20194;-48
2021/05/31 00:47:36;;;;;;;23.57;13.93;;;11.00;99.90;;;;;;5083837;28;20219;-48
2021/05/31 00:50:03;;;;;;;22.27;14.67;;;11.00;99.90;;;;;;5082362;28;20204;-46
2021/05/31 00:52:29;;;;;;;20.53;13.57;;;10.90;99.90;;;;;;5085097;28;20198;-48
2021/05/31 00:54:55;;;;;;;22.27;14.30;;;10.90;99.90;;;;;;5081182;28;20186;-46
2021/05/31 00:57:22;;;;;;;21.43;14.63;;;10.80;99.90;;;;;;5070476;28;20218;-48
2021/05/31 00:59:48;;;;;;;22.10;14.40;;;10.80;99.90;;;;;;5080219;28;20218;-49
2021/05/31 01:02:15;;;;;;;21.87;14.47;;;10.70;99.90;;;;;;5085168;28;20213;-48
2021/05/31 01:04:42;;;;;;;23.53;14.33;;;10.70;99.90;;;;;;5082319;28;20198;-48
2021/05/31 01:07:13;;;;;;;21.60;14.80;;;10.70;99.90;;;;;;5083548;28;20725;-46
2021/05/31 01:09:46;;;;;;;20.47;14.77;;;10.70;99.90;;;;;;5082081;28;20555;-47
2021/05/31 01:12:20;;;;;;;19.03;13.87;;;10.70;99.90;;;;;;5069366;28;21021;-47
2021/05/31 01:14:54;;;;;;;24.37;15.40;;;10.70;99.90;;;;;;5080917;28;20197;-47
2021/05/31 01:17:25;;;;;;;21.80;13.57;;;10.70;99.90;;;;;;5084328;28;20579;-48
2021/05/31 01:20:22;;;;;;;18.20;12.70;;;10.70;99.90;;;;;;5076337;28;20186;-46
2021/05/31 01:22:50;;;;;;;22.23;14.03;;;10.60;99.90;;;;;;5060489;28;20878;-47
2021/05/31 01:25:33;;;;;;;20.60;13.53;;;10.60;99.90;;;;;;5064136;28;20190;-48
2021/05/31 01:28:20;;;;;;;22.50;13.13;;;10.60;99.90;;;;;;5051166;28;20222;-46
2021/05/31 01:30:49;;;;;;;19.77;12.73;;;10.60;99.90;;;;;;5079899;28;20573;-48
2021/05/31 01:33:18;;;;;;;21.67;12.37;;;10.60;99.90;;;;;;5084205;28;20194;-46
2021/05/31 01:35:45;;;;;;;20.87;13.77;;;10.50;99.90;;;;;;5081056;28;20208;-46
2021/05/31 01:38:12;;;;;;;19.70;13.20;;;10.50;99.90;;;;;;5083654;28;20221;-46
2021/05/31 01:40:39;;;;;;;21.07;13.93;;;10.50;99.90;;;;;;5081652;28;20221;-47
2021/05/31 01:43:06;;;;;;;19.37;13.10;;;10.40;99.90;;;;;;5083493;28;20698;-48
2021/05/31 01:45:33;;;;;;;20.87;13.43;;;10.40;99.90;;;;;;5071631;28;20682;-46
2021/05/31 01:48:01;;;;;;;18.93;13.83;;;10.40;99.90;;;;;;5080874;28;20300;-46
2021/05/31 01:50:28;;;;;;;21.70;12.60;;;10.40;99.90;;;;;;5083590;28;20253;-48
2021/05/31 01:52:55;;;;;;;24.77;13.90;;;10.40;99.90;;;;;;5079545;28;20198;-46
2021/05/31 01:55:22;;;;;;;20.43;13.10;;;10.40;99.90;;;;;;5084025;28;20186;-49
2021/05/31 01:57:50;;;;;;;19.97;13.30;;;10.30;99.90;;;;;;5079045;28;20404;-46
2021/05/31 02:00:18;;;;;;;19.43;13.00;;;10.30;99.90;;;;;;5068902;28;20206;-46
2021/05/31 02:02:44;;;;;;;17.93;11.60;;;10.30;99.90;;;;;;5080684;28;20190;-51
2021/05/31 02:05:14;;;;;;;18.03;11.53;;;10.30;99.90;;;;;;5083265;28;20186;-48
2021/05/31 02:07:41;;;;;;;17.93;11.80;;;10.30;99.90;;;;;;5081113;28;20312;-48
2021/05/31 02:10:09;;;;;;;15.70;11.20;;;10.20;99.90;;;;;;5076625;28;20923;-46
2021/05/31 02:12:42;;;;;;;17.37;12.30;;;10.20;99.90;;;;;;5077074;28;20206;-47
2021/05/31 02:15:10;;;;;;;18.17;12.47;;;10.10;99.90;;;;;;5064329;28;20220;-47
2021/05/31 02:17:41;;;;;;;19.93;12.53;;;10.00;99.90;;;;;;5079154;28;20213;-47
2021/05/31 02:20:10;;;;;;;16.33;12.40;;;10.00;99.90;;;;;;5081119;28;20519;-49
2021/05/31 02:22:43;;;;;;;18.93;12.00;;;9.90;99.90;;;;;;5081661;28;20198;-46
2021/05/31 02:25:10;;;;;;;19.53;12.43;;;9.90;99.90;;;;;;5081135;28;20186;-46
2021/05/31 02:27:37;;;;;;;24.47;12.77;;;9.90;99.90;;;;;;5081544;28;20505;-47
2021/05/31 02:30:05;;;;;;;19.33;12.87;;;9.90;99.90;;;;;;5078153;28;20205;-46
2021/05/31 02:32:31;;;;;;;21.33;13.13;;;9.90;99.90;;;;;;5068670;28;20978;-46
2021/05/31 02:34:58;;;;;;;19.10;13.13;;;9.90;99.90;;;;;;5083091;28;20269;-48
2021/05/31 02:37:30;;;;;;;20.13;13.40;;;9.80;99.90;;;;;;5079345;28;20213;-46
2021/05/31 02:39:57;;;;;;;24.03;14.17;;;9.80;99.90;;;;;;5082397;28;20202;-46
2021/05/31 02:42:23;;;;;;;20.70;13.50;;;9.80;99.90;;;;;;5078917;28;20182;-46
2021/05/31 02:44:49;;;;;;;18.10;12.33;;;9.90;99.90;;;;;;5083000;28;20682;-46
2021/05/31 02:47:15;;;;;;;23.50;13.73;;;9.80;99.90;;;;;;5061657;28;20224;-45
2021/05/31 02:49:41;;;;;;;18.17;12.10;;;9.80;99.90;;;;;;5082034;28;20256;-48
2021/05/31 02:52:08;;;;;;;20.87;13.13;;;9.80;99.90;;;;;;5080957;28;20213;-48
2021/05/31 02:54:34;;;;;;;23.23;13.40;;;9.80;99.90;;;;;;5081172;28;20193;-46
2021/05/31 02:57:01;;;;;;;16.90;12.00;;;9.80;99.90;;;;;;5082543;28;20206;-47
2021/05/31 02:59:27;;;;;;;22.03;12.63;;;9.70;99.90;;;;;;5078935;28;20182;-49
2021/05/31 03:01:53;;;;;;;19.87;12.57;;;9.70;99.90;;;;;;5068797;28;20213;-48
2021/05/31 03:04:19;;;;;;;19.63;13.83;;;9.70;99.90;;;;;;5074932;28;20194;-50
2021/05/31 03:06:46;;;;;;;21.00;13.10;;;9.60;99.90;;;;;;5086612;28;20213;-49
2021/05/31 03:09:12;;;;;;;22.90;13.40;;;9.60;99.90;;;;;;5083650;28;20205;-47
2021/05/31 03:11:38;;;;;;;20.90;11.90;;;9.60;99.90;;;;;;5084929;28;20194;-48
2021/05/31 03:14:05;;;;;;;20.03;12.23;;;9.60;99.90;;;;;;5083939;28;20580;-50
2021/05/31 03:16:31;;;;;;;18.07;12.03;;;9.60;99.90;;;;;;5084440;28;20523;-47
2021/05/31 03:18:57;;;;;;;18.20;12.23;;;9.60;99.90;;;;;;5067412;28;20206;-46
2021/05/31 03:21:23;;;;;;;22.53;12.07;;;9.60;99.90;;;;;;5082714;28;20190;-47
2021/05/31 03:23:50;;;;;;;19.87;11.80;;;9.50;99.90;;;;;;5086871;28;20535;-50
2021/05/31 03:26:16;;;;;;;21.80;12.37;;;9.50;99.90;;;;;;5082731;28;20205;-49
2021/05/31 03:28:42;;;;;;;19.87;12.73;;;9.40;99.90;;;;;;5082868;28;20218;-48
2021/05/31 03:31:09;;;;;;;20.23;12.97;;;9.50;99.90;;;;;;5084686;28;20269;-50
2021/05/31 03:33:35;;;;;;;17.93;11.73;;;9.50;99.90;;;;;;5071107;28;20248;-46
2021/05/31 03:36:02;;;;;;;19.80;12.20;;;9.50;99.90;;;;;;5081359;28;20546;-46
2021/05/31 03:38:28;;;;;;;17.37;12.27;;;9.50;99.90;;;;;;5083168;28;21085;-46
2021/05/31 03:40:54;;;;;;;18.27;12.17;;;9.40;99.90;;;;;;5085759;28;20614;-47
2021/05/31 03:43:21;;;;;;;17.73;12.27;;;9.40;99.90;;;;;;5081689;28;20182;-47
2021/05/31 03:45:47;;;;;;;21.00;13.37;;;9.40;99.90;;;;;;5086002;28;20202;-48
2021/05/31 03:48:14;;;;;;;18.13;12.47;;;9.40;99.90;;;;;;5072767;28;20220;-52
2021/05/31 03:50:41;;;;;;;18.93;12.53;;;9.40;99.90;;;;;;5078883;28;20216;-46
2021/05/31 03:53:07;;;;;;;17.87;12.27;;;9.40;99.90;;;;;;5084480;28;20220;-45
2021/05/31 03:55:33;;;;;;;18.73;11.43;;;9.40;99.90;;;;;;5084053;28;20247;-48
2021/05/31 03:58:00;;;;;;;16.53;11.47;;;9.40;99.90;;;;;;5085372;28;20304;-49
2021/05/31 04:00:28;;;;;;;17.80;11.70;;;9.50;99.90;;;;;;5081817;28;20197;-47
2021/05/31 04:02:54;;;;;;;16.93;11.70;;;9.40;99.90;;;;;;5086056;28;20219;-46
2021/05/31 04:05:25;;;;;;;18.07;12.10;;;9.40;99.90;;;;;;5063219;28;20205;-48
2021/05/31 04:13:18;;;;;;;17.80;12.77;;;9.40;99.90;;;;;;5081117;28;20201;-46
2021/05/31 04:15:44;;;;;;;18.40;12.57;;;9.40;99.90;;;;;;5085413;28;20190;-47
2021/05/31 04:18:10;;;;;;;16.20;11.07;;;9.40;99.90;;;;;;5074812;28;20214;-47
2021/05/31 04:20:38;;;;;;;20.53;11.97;;;9.40;99.90;;;;;;5070432;28;20232;-47
2021/05/31 04:23:04;;;;;;;16.90;11.87;;;9.50;99.90;;;;;;5084085;28;20647;-47
2021/05/31 04:25:30;;;;;;;18.63;11.97;;;9.50;99.90;;;;;;5082490;28;20462;-47
2021/05/31 04:27:57;;;;;;;16.30;11.10;;;9.50;99.90;;;;;;5084723;28;20226;-49
2021/05/31 04:30:24;;;;;;;19.67;12.47;;;9.60;99.90;;;;;;5081146;28;20319;-47
2021/05/31 04:32:50;;;;;;;16.77;11.60;;;9.60;99.90;;;;;;5085569;28;20247;-47
2021/05/31 04:35:16;;;;;;;16.77;11.53;;;9.60;99.90;;;;;;5059684;28;20202;-49
2021/05/31 04:37:44;;;;;;;20.77;11.20;;;9.70;99.90;;;;;;5084532;28;20240;-45
2021/05/31 04:40:10;;;;;;;14.50;10.90;;;9.70;99.90;;;;;;5082505;28;20194;-47
2021/05/31 04:42:37;;;;;;;15.83;10.73;;;9.80;99.90;;;;;;5083391;28;20330;-47
2021/05/31 04:45:05;;;;;;;16.53;10.67;;;9.80;99.90;;;;;;5084317;28;20248;-46
2021/05/31 04:47:31;;;;;;;14.53;9.80;;;9.90;99.90;;;;;;5082815;28;20958;-47
2021/05/31 04:49:57;;;;;;;14.50;9.87;;;9.90;99.90;;;;;;5071061;28;20203;-47
2021/05/31 04:52:23;;;;;;;14.57;10.43;;;10.00;99.90;;;;;;5076903;28;20197;-46
2021/05/31 04:54:51;;;;;;;11.83;9.23;;;10.00;99.90;;;;;;5083619;28;20190;-48
2021/05/31 04:57:18;;;;;;;11.20;9.23;;;10.10;99.90;;;;;;5080474;28;20275;-50
2021/05/31 04:59:44;;;;;;;14.40;9.37;;;10.20;99.90;;;;;;5083930;28;20209;-47
2021/05/31 05:02:10;;;;;;;12.43;9.33;;;10.30;99.90;;;;;;5072688;28;20213;-48
2021/05/31 05:04:36;;;;;;;12.27;9.00;;;10.30;99.90;;;;;;5075146;28;20186;-49
2021/05/31 05:07:03;;;;;;;12.33;8.30;;;10.40;99.90;;;;;;5070310;28;20230;-46
2021/05/31 05:09:29;;;;;;;11.03;8.73;;;10.50;99.90;;;;;;5083022;28;20267;-46
2021/05/31 05:11:56;;;;;;;11.30;8.23;;;10.60;99.90;;;;;;5081218;28;20190;-47
2021/05/31 05:14:22;;;;;;;11.27;7.40;;;10.70;99.90;;;;;;5084387;28;20205;-46
2021/05/31 05:16:49;;;;;;;10.47;7.23;;;10.70;99.90;;;;;;5080627;28;20185;-46
2021/05/31 05:19:15;;;;;;;12.53;7.47;;;10.80;99.90;;;;;;5084181;28;20288;-48
2021/05/31 05:21:41;;;;;;;9.23;7.20;;;10.80;99.90;;;;;;5062356;28;20210;-47
2021/05/31 05:24:08;;;;;;;12.13;6.60;;;10.90;99.90;;;;;;5083557;28;20259;-47
2021/05/31 05:26:34;;;;;;;7.90;6.60;;;11.00;99.90;;;;;;5082055;28;20218;-44
2021/05/31 05:29:01;;;;;;;9.30;5.60;;;11.10;99.90;;;;;;5081221;28;20194;-46
2021/05/31 05:31:28;;;;;;;5.57;5.07;;;11.20;99.90;;;;;;5077170;28;20194;-46
2021/05/31 05:33:55;;;;;;;6.27;5.67;;;11.20;99.90;;;;;;5080827;28;20243;-47
2021/05/31 05:36:27;;;;;;;5.50;5.00;;;11.40;99.90;;;;;;5082286;28;20201;-48
2021/05/31 05:41:45;;;;;;;7.37;5.73;;;11.50;99.90;;;;;;5081199;28;20608;-47
2021/05/31 05:47:05;;;;;;;5.07;4.57;;;11.70;99.90;;;;;;5080079;28;20214;-46
2021/05/31 05:49:31;;;;;;;4.90;4.50;;;11.70;99.90;;;;;;5082311;28;20631;-51
2021/05/31 05:51:57;;;;;;;6.33;4.10;;;11.80;99.90;;;;;;5080477;28;20961;-45
2021/05/31 05:54:23;;;;;;;8.80;3.80;;;11.90;99.90;;;;;;5065174;28;20263;-46
2021/05/31 05:56:49;;;;;;;6.03;3.60;;;11.90;99.90;;;;;;5077960;28;20178;-46
2021/05/31 05:59:17;;;;;;;4.60;3.67;;;12.00;99.90;;;;;;5077844;28;20200;-46
2021/05/31 06:01:44;;;;;;;5.90;3.37;;;12.00;99.90;;;;;;5075451;28;20198;-47
2021/05/31 06:04:10;;;;;;;4.87;3.03;;;12.10;99.90;;;;;;5079978;28;20198;-46
2021/05/31 06:06:36;;;;;;;3.43;2.60;;;12.30;99.90;;;;;;5078720;28;20267;-46
2021/05/31 06:09:03;;;;;;;9.07;3.10;;;12.40;99.90;;;;;;5062246;28;20217;-47
2021/05/31 06:11:29;;;;;;;4.87;3.20;;;12.40;99.90;;;;;;5081960;28;20194;-47
2021/05/31 06:13:55;;;;;;;3.20;2.90;;;12.50;99.90;;;;;;5077934;28;20189;-50
2021/05/31 06:16:23;;;;;;;3.03;2.50;;;12.60;99.90;;;;;;5081260;28;20237;-46
2021/05/31 06:18:50;;;;;;;5.73;2.67;;;12.60;99.90;;;;;;5067958;28;20218;-50
2021/05/31 06:21:16;;;;;;;2.50;2.30;;;12.70;99.90;;;;;;5077024;28;20276;-48
2021/05/31 06:23:42;;;;;;;2.93;2.30;;;12.80;99.90;;;;;;5061609;28;20210;-51
2021/05/31 06:26:09;;;;;;;3.83;2.90;;;12.90;99.90;;;;;;5076062;28;20670;-49
2021/05/31 06:28:35;;;;;;;5.23;2.70;;;12.90;99.90;;;;;;5080434;28;20218;-46
2021/05/31 06:31:01;;;;;;;2.87;2.50;;;13.00;99.90;;;;;;5081479;28;20915;-53
2021/05/31 06:33:28;;;;;;;3.53;2.40;;;13.10;99.90;;;;;;5082771;28;20190;-51
2021/05/31 06:35:56;;;;;;;5.20;2.70;;;13.20;99.90;;;;;;5080487;28;20186;-50
2021/05/31 06:38:22;;;;;;;3.17;2.60;;;13.30;99.90;;;;;;5083388;28;20206;-48
2021/05/31 06:40:48;;;;;;;3.10;2.50;;;13.40;99.90;;;;;;5060168;28;20205;-48
2021/05/31 06:43:14;;;;;;;2.67;2.33;;;13.60;99.90;;;;;;5081970;28;20190;-53
2021/05/31 06:45:40;;;;;;;2.77;2.43;;;13.60;99.90;;;;;;5079713;28;20194;-47
2021/05/31 06:48:07;;;;;;;2.90;2.17;;;13.70;99.90;;;;;;5082592;28;20218;-52
2021/05/31 06:50:34;;;;;;;2.23;1.97;;;13.70;99.90;;;;;;5081178;28;20222;-48
2021/05/31 06:53:02;;;;;;;4.80;2.10;;;13.80;99.90;;;;;;5072052;28;20206;-50
2021/05/31 06:55:30;;;;;;;3.17;2.17;;;13.90;99.90;;;;;;5053114;28;20193;-49
2021/05/31 06:57:57;;;;;;;2.73;2.20;;;14.00;99.90;;;;;;5077903;28;20266;-46
2021/05/31 07:00:25;;;;;;;2.47;2.13;;;14.10;99.90;;;;;;5078529;28;20198;-49
2021/05/31 07:02:52;;;;;;;3.73;2.17;;;14.20;99.90;;;;;;5083169;28;20198;-49
2021/05/31 07:05:19;;;;;;;4.27;1.97;;;14.20;99.90;;;;;;5078165;28;20273;-48
2021/05/31 07:07:46;;;;;;;3.40;1.90;;;14.30;99.90;;;;;;5081498;28;20308;-49
2021/05/31 07:10:15;;;;;;;3.50;2.10;;;14.40;99.90;;;;;;5073868;28;20217;-47
2021/05/31 07:12:42;;;;;;;1.97;1.87;;;14.50;99.90;;;;;;5069854;28;20206;-45
2021/05/31 07:15:12;;;;;;;3.17;1.93;;;14.60;99.90;;;;;;5065240;28;20288;-47
2021/05/31 07:17:39;;;;;;;3.47;2.10;;;14.60;99.90;;;;;;5078074;28;20218;-49
2021/05/31 07:20:08;;;;;;;3.23;2.40;;;14.70;99.90;;;;;;5075959;28;20282;-51
2021/05/31 07:22:35;;;;;;;3.33;1.60;;;14.80;99.90;;;;;;5082670;28;20280;-49
2021/05/31 07:25:03;;;;;;;4.57;1.87;;;14.90;99.90;;;;;;5072792;28;20194;-51
2021/05/31 07:27:29;;;;;;;1.93;1.83;;;15.00;99.90;;;;;;5062193;28;20331;-51
2021/05/31 07:29:56;;;;;;;2.80;1.87;;;15.00;99.90;;;;;;5073255;28;20210;-45
2021/05/31 07:32:22;;;;;;;2.20;1.67;;;15.10;99.90;;;;;;5078428;28;20580;-52
2021/05/31 07:34:48;;;;;;;2.40;1.60;;;15.10;99.90;;;;;;5079899;28;20200;-46
2021/05/31 07:37:14;;;;;;;4.50;2.20;;;15.20;99.90;;;;;;5077714;28;20202;-52
2021/05/31 07:39:41;;;;;;;2.83;1.53;;;15.20;99.90;;;;;;5072857;28;20217;-54
2021/05/31 07:42:08;;;;;;;2.10;1.90;;;15.30;99.90;;;;;;5060771;28;20202;-52
2021/05/31 07:44:35;;;;;;;2.80;1.23;;;15.40;99.90;;;;;;5074460;28;20201;-47
2021/05/31 07:47:02;;;;;;;3.50;1.77;;;15.40;99.50;;;;;;5071427;28;20210;-51
2021/05/31 07:49:28;;;;;;;1.60;1.50;;;15.50;98.70;;;;;;5068478;28;20195;-52
2021/05/31 07:51:55;;;;;;;1.53;1.30;;;15.60;98.00;;;;;;5073432;28;20202;-48
2021/05/31 07:54:24;;;;;;;1.30;1.20;;;15.80;97.50;;;;;;5085428;28;20276;-51
2021/05/31 07:56:50;;;;;;;1.87;1.67;;;15.80;96.80;;;;;;5074005;28;20198;-48
2021/05/31 07:59:18;;;;;;;1.20;1.10;;;15.90;96.40;;;;;;5065329;28;20198;-51
2021/05/31 08:01:44;;;;;;;2.73;1.67;;;16.00;95.80;;;;;;5079218;28;20262;-49
2021/05/31 08:04:10;;;;;;;2.30;1.50;;;16.10;94.30;;;;;;5082941;28;20198;-49
2021/05/31 08:06:37;;;;;;;1.33;1.23;;;16.20;94.90;;;;;;5084299;28;20214;-53
2021/05/31 08:09:05;;;;;;;1.57;1.43;;;16.30;94.10;;;;;;5080418;28;20952;-50
2021/05/31 08:11:31;;;;;;;1.53;1.40;;;16.40;94.00;;;;;;5074480;28;20201;-52
2021/05/31 08:13:58;;;;;;;1.73;1.30;;;16.50;92.80;;;;;;5071413;28;20214;-55
2021/05/31 08:16:25;;;;;;;2.60;1.50;;;16.60;92.80;;;;;;5071457;28;20208;-49
2021/05/31 08:18:51;;;;;;;1.50;1.30;;;16.60;92.90;;;;;;5085376;28;20216;-50
2021/05/31 08:21:17;;;;;;;2.00;1.60;;;16.80;92.70;;;;;;5082425;28;20659;-49
2021/05/31 08:23:44;;;;;;;4.73;1.93;;;16.90;92.70;;;;;;5084797;28;20512;-50
2021/05/31 08:26:10;;;;;;;3.50;1.43;;;17.00;92.70;;;;;;5074382;28;20226;-49
2021/05/31 08:28:36;;;;;;;2.43;1.90;;;17.00;91.00;;;;;;5064515;28;20222;-48
2021/05/31 08:31:03;;;;;;;1.37;1.30;;;17.10;90.00;;;;;;5070936;28;20209;-47
2021/05/31 08:33:31;;;;;;;2.43;1.27;;;17.10;87.90;;;;;;5076905;28;20209;-51
2021/05/31 08:35:57;;;;;;;2.53;1.37;;;17.20;88.50;;;;;;5082939;28;20206;-51
2021/05/31 08:38:23;;;;;;;2.87;1.50;;;17.30;87.80;;;;;;5070657;28;20217;-48
2021/05/31 08:40:49;;;;;;;2.10;1.50;;;17.30;87.90;;;;;;5080485;28;20190;-47
2021/05/31 08:43:15;;;;;;;1.50;1.40;;;17.40;83.60;;;;;;5074429;28;20198;-49
2021/05/31 08:45:42;;;;;;;1.63;1.30;;;17.40;81.20;;;;;;5069288;28;20553;-44
2021/05/31 08:48:10;;;;;;;5.77;1.53;;;17.40;85.80;;;;;;5067824;28;20790;-49
2021/05/31 08:50:39;;;;;;;1.57;1.40;;;17.60;82.80;;;;;;5080934;28;20563;-52
2021/05/31 08:53:05;;;;;;;2.63;1.30;;;17.70;77.40;;;;;;5077497;28;20930;-51
2021/05/31 08:55:32;;;;;;;1.40;1.30;;;17.90;77.00;;;;;;5084751;28;20725;-46
2021/05/31 08:57:59;;;;;;;2.00;1.37;;;17.90;72.40;;;;;;5078328;28;20922;-48
2021/05/31 09:00:27;;;;;;;2.57;1.83;;;17.90;76.60;;;;;;5067912;28;20255;-49
2021/05/31 09:02:54;;;;;;;3.50;1.50;;;17.90;78.40;;;;;;5060862;28;20235;-46
2021/05/31 09:05:36;;;;;;;2.23;1.50;;;18.00;77.50;;;;;;5082263;28;20206;-49
2021/05/31 09:08:06;;;;;;;1.63;1.17;;;18.10;74.40;;;;;;5074920;28;20295;-46
2021/05/31 09:10:37;;;;;;;1.67;1.40;;;18.20;73.80;;;;;;5081662;28;20667;-46
2021/05/31 09:13:04;;;;;;;2.63;1.60;;;18.20;72.50;;;;;;5077818;28;20194;-49
2021/05/31 09:15:31;;;;;;;1.80;1.70;;;18.20;70.80;;;;;;5065597;28;20248;-47
2021/05/31 09:17:57;;;;;;;2.70;1.90;;;18.30;72.50;;;;;;5063789;28;20228;-47
2021/05/31 09:20:25;;;;;;;4.87;1.77;;;18.40;75.90;;;;;;5083436;28;20202;-47
2021/05/31 09:22:54;;;;;;;3.30;1.47;;;18.60;76.60;;;;;;5080494;28;20223;-45
2021/05/31 09:25:29;;;;;;;2.47;1.50;;;18.70;76.30;;;;;;5076645;28;20664;-45
2021/05/31 09:27:57;;;;;;;2.00;1.57;;;18.70;70.50;;;;;;5071035;28;20225;-47
2021/05/31 09:30:41;;;;;;;1.53;1.43;;;18.70;74.20;;;;;;5077853;28;20216;-46
2021/05/31 09:33:09;;;;;;;1.70;1.50;;;18.70;71.20;;;;;;5064796;28;20911;-50
2021/05/31 09:35:39;;;;;;;1.77;1.67;;;18.80;74.50;;;;;;5068790;28;20190;-45
2021/05/31 09:38:05;;;;;;;2.30;1.67;;;18.90;75.70;;;;;;5084144;28;20224;-46
2021/05/31 09:40:33;;;;;;;1.67;1.57;;;19.00;75.10;;;;;;5072656;28;20215;-51
2021/05/31 09:43:01;;;;;;;2.07;1.83;;;19.10;75.00;;;;;;5083919;28;20209;-46
2021/05/31 09:45:29;;;;;;;3.00;1.77;;;19.20;75.90;;;;;;5079128;28;20194;-48
2021/05/31 09:47:59;;;;;;;2.77;1.60;;;19.30;75.10;;;;;;5061672;28;20232;-48
2021/05/31 09:50:26;;;;;;;2.70;2.10;;;19.40;76.90;;;;;;5072759;28;20209;-48
2021/05/31 09:53:06;;;;;;;1.60;1.50;;;19.40;77.20;;;;;;5083838;28;20216;-44
2021/05/31 09:55:36;;;;;;;2.10;2.00;;;19.40;76.10;;;;;;5075282;28;20192;-48
2021/05/31 09:58:06;;;;;;;2.23;1.90;;;19.40;75.60;;;;;;5078301;28;20222;-46
2021/05/31 10:00:33;;;;;;;2.27;2.10;;;19.40;75.90;;;;;;5079000;28;20809;-47
2021/05/31 10:03:14;;;;;;;2.17;1.93;;;19.40;74.30;;;;;;5067031;28;20214;-45
2021/05/31 10:05:44;;;;;;;3.20;2.17;;;19.50;75.60;;;;;;5075639;28;20827;-47
2021/05/31 10:08:27;;;;;;;4.07;2.40;;;19.60;75.60;;;;;;5073114;28;20222;-46
2021/05/31 10:10:56;;;;;;;7.70;2.67;;;19.60;76.80;;;;;;5075901;28;20772;-47
2021/05/31 10:13:23;;;;;;;2.53;2.33;;;19.80;77.30;;;;;;5062447;28;20244;-48
2021/05/31 10:15:50;;;;;;;3.90;2.37;;;19.90;79.10;;;;;;5060645;28;20198;-45
2021/05/31 10:18:18;;;;;;;4.70;2.67;;;19.90;77.40;;;;;;5067041;28;24393;-45
2021/05/31 10:20:46;;;;;;;2.53;2.00;;;19.90;80.30;;;;;;5076077;28;20206;-46
2021/05/31 10:23:14;;;;;;;3.23;1.97;;;20.00;79.90;;;;;;5081088;28;20958;-46
2021/05/31 10:25:44;;;;;;;2.27;2.13;;;20.00;80.00;;;;;;5081297;28;20198;-46
2021/05/31 10:28:14;;;;;;;3.13;2.40;;;19.90;79.40;;;;;;5075793;28;20214;-46
2021/05/31 10:30:42;;;;;;;3.10;2.07;;;20.10;79.00;;;;;;5080174;28;20263;-45
2021/05/31 10:33:12;;;;;;;3.07;2.20;;;20.10;79.40;;;;;;5080077;28;20190;-46
2021/05/31 10:35:39;;;;;;;2.67;2.47;;;;;;;;;;5063061;28;20209;-44
2021/05/31 10:38:11;;;;;;;6.47;2.57;;;20.20;78.40;;;;;;5079435;28;20223;-46
2021/05/31 10:40:42;;;;;;;3.47;2.10;;;20.40;78.50;;;;;;5081565;28;20204;-44
2021/05/31 10:43:10;;;;;;;3.63;2.40;;;20.30;80.60;;;;;;5075417;28;20304;-45
2021/05/31 10:45:39;;;;;;;2.20;2.07;;;20.40;80.00;;;;;;5080877;28;20217;-46
2021/05/31 10:48:09;;;;;;;3.97;2.50;;;20.40;77.50;;;;;;5078706;28;20221;-45
2021/05/31 10:50:37;;;;;;;5.47;2.40;;;20.40;78.90;;;;;;5061886;28;20209;-47
2021/05/31 10:53:04;;;;;;;2.47;2.27;;;20.40;81.40;;;;;;5078168;28;20190;-46
2021/05/31 10:55:30;;;;;;;2.30;2.00;;;20.50;79.60;;;;;;5082119;28;20545;-47
2021/05/31 10:57:58;;;;;;;3.57;3.00;;;20.50;77.30;;;;;;5072708;28;20218;-46
2021/05/31 11:00:28;;;;;;;4.87;2.30;;;20.50;78.00;;;;;;5076781;28;20259;-46
2021/05/31 11:03:11;;;;;;;2.53;2.23;;;20.70;79.00;;;;;;5055869;28;20206;-45
2021/05/31 11:05:38;;;;;;;2.30;2.10;;;20.80;78.60;;;;;;5053789;28;20293;-43
2021/05/31 11:08:07;;;;;;;2.40;2.10;;;20.90;78.40;;;;;;5075911;28;20229;-48
2021/05/31 11:10:35;;;;;;;2.40;2.20;;;20.90;77.00;;;;;;5069557;28;20198;-46
2021/05/31 11:13:12;;;;;;;2.63;2.43;;;20.90;77.60;;;;;;5077015;28;20210;-49
2021/05/31 11:15:38;;;;;;;3.97;2.63;;;21.00;75.20;;;;;;5073030;28;20285;-46
2021/05/31 11:18:05;;;;;;;4.03;2.40;;;21.00;79.40;;;;;;5082129;28;20220;-47
2021/05/31 11:20:33;;;;;;;2.67;1.97;;;;;;;;;;5057732;28;20202;-46
2021/05/31 11:23:01;;;;;;;4.37;2.60;;;;;;;;;;5078285;28;20285;-45
2021/05/31 11:25:29;;;;;;;3.33;2.30;;;;;;;;;;5078038;28;20265;-45
2021/05/31 11:27:58;;;;;;;2.40;2.27;;;20.90;90.90;;;;;;5081282;28;20217;-46
2021/05/31 11:30:26;;;;;;;2.40;2.20;;;21.70;93.30;;;;;;5080215;28;20251;-44
2021/05/31 11:32:54;;;;;;;2.70;2.50;;;21.20;92.70;;;;;;5079734;28;20205;-47
2021/05/31 11:35:22;;;;;;;2.87;2.60;;;21.30;91.50;;;;;;5064019;28;20205;-46
2021/05/31 11:37:51;;;;;;;4.43;2.60;;;21.20;90.90;;;;;;5079100;28;20220;-49
2021/05/31 11:40:24;;;;;;;2.70;2.50;;;21.40;89.00;;;;;;5083655;28;20193;-45
2021/05/31 11:42:52;;;;;;;3.67;2.53;;;21.20;92.50;;;;;;5084747;28;20198;-46
2021/05/31 11:45:20;;;;;;;4.90;3.10;;;21.20;94.40;;;;;;5075970;28;20308;-47
2021/05/31 11:47:54;;;;;;;3.57;2.77;;;21.30;92.40;;;;;;5084957;28;20228;-48
2021/05/31 11:50:22;;;;;;;4.47;2.67;;;21.60;90.60;;;;;;5070797;28;20190;-48
2021/05/31 11:52:50;;;;;;;2.70;2.40;;;21.80;89.70;;;;;;5083660;28;20217;-50
2021/05/31 11:55:19;;;;;;;2.67;2.47;;;21.90;88.90;;;;;;5075829;28;20208;-46
2021/05/31 11:57:45;;;;;;;2.97;2.67;;;21.60;76.70;;;;;;5080886;28;20218;-50
2021/05/31 12:00:18;;;;;;;3.20;2.67;;;21.70;77.10;;;;;;5078179;28;20206;-46
2021/05/31 12:02:45;;;;;;;3.47;2.33;;;21.70;77.10;;;;;;5082264;28;20201;-52
2021/05/31 12:05:12;;;;;;;4.15;2.45;;;21.80;76.20;;;;;;5073442;28;20200;-47
2021/05/31 12:07:42;;;;;;;2.40;2.20;;;21.80;77.00;;;;;;5065247;28;20217;-46
2021/05/31 12:10:12;;;;;;;7.40;3.30;;;21.80;77.40;;;;;;5078817;28;20255;-45
2021/05/31 12:12:39;;;;;;;3.13;2.70;;;21.90;79.40;;;;;;5082409;28;20906;-49
2021/05/31 12:15:07;;;;;;;2.40;2.20;;;21.90;77.00;;;;;;5080859;28;20363;-49
2021/05/31 12:17:34;;;;;;;2.60;2.17;;;22.00;78.90;;;;;;5080836;28;20329;-49
2021/05/31 12:20:02;;;;;;;3.05;2.50;;;22.00;77.30;;;;;;5083143;28;20202;-48
2021/05/31 12:22:29;;;;;;;2.72;1.98;;;22.10;73.90;;;;;;5064777;28;20256;-49
2021/05/31 12:24:57;;;;;;;4.60;2.40;;;22.10;75.10;;;;;;5074978;28;20273;-48
2021/05/31 12:27:27;;;;;;;4.88;2.65;;;22.20;77.60;;;;;;5078270;28;20302;-45
2021/05/31 12:29:54;;;;;;;2.60;2.40;;;22.30;76.60;;;;;;5078385;28;20328;-51
2021/05/31 12:32:22;;;;;;;3.22;2.50;;;22.40;76.40;;;;;;5082214;28;20685;-49
2021/05/31 12:34:51;;;;;;;4.05;2.63;;;22.40;75.60;;;;;;5074401;28;20205;-49
2021/05/31 12:37:21;;;;;;;2.50;2.30;;;22.40;75.10;;;;;;5064103;28;20217;-46
2021/05/31 12:39:49;;;;;;;7.18;2.38;;;22.50;74.30;;;;;;5081491;28;20339;-46
2021/05/31 12:42:20;;;;;;;2.75;2.47;;;22.50;72.80;;;;;;5075202;28;20202;-46
2021/05/31 12:44:48;;;;;;;4.22;2.78;;;22.50;71.50;;;;;;5075995;28;20202;-48
2021/05/31 12:47:16;;;;;;;2.60;2.40;;;22.60;72.40;;;;;;5078422;28;20222;-48
2021/05/31 12:49:44;;;;;;;2.60;2.40;;;22.90;70.80;;;;;;5070698;28;20199;-47
2021/05/31 12:52:11;;;;;;;4.78;2.60;;;23.00;69.20;;;;;;5072163;28;20622;-50
2021/05/31 12:54:37;;;;;;;3.80;2.80;;;23.40;72.60;;;;;;5071334;28;20209;-51
2021/05/31 12:57:11;;;;;;;4.68;2.83;;;23.90;72.10;;;;;;5078879;28;20217;-50